Duke Field AFS, FL

10:03 PM CDT on May 23, 2015 (GMT -0500)
Sandy Ridge | | Change Station
CLOSE
Current Station
Personal Weather Station
Location: Crestview, FL
Elevation: 157 ft
Nearby Weather Stations

Elev 157 ft 30.71 °N, 86.58 °W | Updated 10 seconds ago

Clear
Clear
73.4 °F
Feels Like 72 °F
N
0.0
Wind Variable Wind from SE
Gusts 0.0 mph

Today
High -- | Low -- °F
--% Chance of Precip.
Yesterday
High -- | Low -- °F
Precip. -- in
5:47 AM 7:38 PM
Waxing Crescent, 35% visible
Pressure 30.20 in
Visibility 9.0 miles
Clouds Clear
Heat Index 72 °F
Dew Point 70 °F
Humidity 89%
Rainfall 0.00 in
Snow Depth Not available.
UV 0 out of 12
Pollen 5.80 out of 12
Air Quality Not available.
Flu Activity Sporadic
METAR KCEW 240253Z AUTO 00000KT 9SM CLR 22/19 A3021 RMK AO2 SLP227 T02220194 53011

More Conditions Fewer Conditions

Pressure 30.20 in
Visibility 9.0 miles
Clouds Clear
Heat Index 72 °F
Dew Point 70 °F
Humidity 89%
Rainfall 0.00 in
Snow Depth Not available.
UV 0 out of 12
Pollen 5.80 out of 12
Air Quality Not available.
Flu Activity Sporadic
METAR KCEW 240253Z AUTO 00000KT 9SM CLR 22/19 A3021 RMK AO2 SLP227 T02220194 53011

More Conditions Fewer Conditions

10-Day Weather Forecast

Almanac

Astronomy

May. 23, 2015 Rise Set
Actual Time
Civil Twilight
Nautical Twilight
Astronomical Twilight
Moon
Length of Visible Light
Length of Day
Tomorrow will be .
, % of the Moon is Illuminated

Today's Extremes

State Highs State Lows

Community

WunderPhotos

Upload Photos

1,823,673 photos uploaded!

WunderBlogs® & News

Nearby

Air Quality

  Air Quality AQ Index Pollutant
Not available.

Snow Depth

Station Depth Elevation

Earthquake Activity

City Distance Mag. Time & Date
Minimum magnitude displayed is 2.5.

Coastal Water Temperatures

Place Temperature

Stations

Nearby Weather Stations

Station Location Temp. Windchill Dew Point Humidity Wind Precip. Elev Updated Type